Time;durP1;ratioP1;P1;durP2;ratioP2;P2;SDS_P1;SDS_P2;PMS_P1;PMS_P2;Temp;Humidity;BMP_temperature;BMP_pressure;BME280_temperature;BME280_humidity;BME280_pressure;Samples;Min_cycle;Max_cycle;Signal;HPM_P1;HPM_P2
2022/05/27 00:01:32;;;;;;;8.00;2.00;;;15.10;99.90;;;;;;5069751;28;20012;-85
2022/05/27 00:04:00;;;;;;;5.72;1.55;;;15.10;99.90;;;;;;5070237;28;20392;-85
2022/05/27 00:06:27;;;;;;;10.32;1.92;;;15.10;99.90;;;;;;5070499;28;20028;-85
2022/05/27 00:08:53;;;;;;;7.90;1.63;;;15.10;99.90;;;;;;5070237;28;20170;-85
2022/05/27 00:11:19;;;;;;;10.05;2.00;;;15.10;99.90;;;;;;5070599;28;20107;-86
2022/05/27 00:13:45;;;;;;;6.78;2.22;;;15.10;99.90;;;;;;5071191;28;20099;-85
2022/05/27 00:16:12;;;;;;;3.63;1.92;;;15.10;99.90;;;;;;5070796;28;20024;-84
2022/05/27 00:18:37;;;;;;;6.28;1.58;;;15.00;99.90;;;;;;5071518;28;20027;-85
2022/05/27 00:21:04;;;;;;;5.18;2.35;;;15.00;99.90;;;;;;5071077;28;20404;-85
2022/05/27 00:23:31;;;;;;;7.82;1.70;;;14.90;99.90;;;;;;5071389;28;20095;-85
2022/05/27 00:25:56;;;;;;;6.10;1.73;;;15.00;99.90;;;;;;5090347;22;20049;-80
2022/05/27 00:28:23;;;;;;;5.35;2.17;;;15.00;99.90;;;;;;5051171;28;20032;-80
2022/05/27 00:30:48;;;;;;;4.05;1.70;;;15.00;99.90;;;;;;5044312;28;20024;-78
2022/05/27 00:33:15;;;;;;;7.50;1.35;;;15.00;99.90;;;;;;5051029;28;20070;-80
2022/05/27 00:35:41;;;;;;;3.80;1.95;;;15.00;99.90;;;;;;5050817;28;20375;-80
2022/05/27 00:38:07;;;;;;;6.47;2.13;;;15.00;99.90;;;;;;5051169;28;20536;-80
2022/05/27 00:40:52;;;;;;;7.43;1.40;;;15.00;99.90;;;;;;5032774;28;20025;-79
2022/05/27 00:43:19;;;;;;;5.68;1.80;;;14.90;99.90;;;;;;5050707;28;20402;-80
2022/05/27 00:45:55;;;;;;;6.15;1.83;;;14.90;99.90;;;;;;5050526;28;20021;-79
2022/05/27 00:48:21;;;;;;;5.00;1.48;;;14.90;99.90;;;;;;5050894;28;20025;-79
2022/05/27 00:50:49;;;;;;;3.17;1.20;;;14.90;99.90;;;;;;5050439;28;20013;-80
2022/05/27 00:53:31;;;;;;;8.07;2.33;;;14.90;99.90;;;;;;5050599;28;20029;-79
2022/05/27 00:55:58;;;;;;;;;;;15.00;99.90;;;;;;5050619;28;20045;-80
2022/05/27 00:58:38;;;;;;;6.63;1.23;;;14.90;99.90;;;;;;5050400;28;19958;-79
2022/05/27 01:01:04;;;;;;;4.45;1.92;;;15.00;99.90;;;;;;5049600;28;20028;-80
2022/05/27 01:03:31;;;;;;;7.43;1.98;;;14.90;99.90;;;;;;5050578;28;20021;-79
2022/05/27 01:05:58;;;;;;;4.03;1.50;;;14.90;99.90;;;;;;5050384;28;20094;-79
2022/05/27 01:08:27;;;;;;;3.85;1.73;;;14.90;99.90;;;;;;5050461;28;20626;-79
2022/05/27 01:11:17;;;;;;;8.13;1.67;;;14.80;99.90;;;;;;5049752;28;20025;-80
2022/05/27 01:14:04;;;;;;;4.60;1.77;;;14.80;99.90;;;;;;5045456;28;20055;-80
2022/05/27 01:17:20;;;;;;;3.35;1.98;;;14.80;99.90;;;;;;5027579;28;20462;-79
2022/05/27 01:20:18;;;;;;;6.72;2.30;;;14.80;99.90;;;;;;5007438;28;20025;-79
2022/05/27 01:22:47;;;;;;;9.10;1.98;;;14.80;99.90;;;;;;5045134;28;20359;-79
2022/05/27 01:28:23;;;;;;;8.07;2.05;;;14.70;99.90;;;;;;5008457;28;20538;-85
2022/05/27 01:31:05;;;;;;;4.55;1.85;;;14.50;99.90;;;;;;4986660;28;20442;-84
2022/05/27 01:33:43;;;;;;;6.95;1.83;;;14.40;99.90;;;;;;4985428;28;20022;-85
2022/05/27 01:36:48;;;;;;;6.47;2.05;;;14.40;99.90;;;;;;4992700;28;20022;-85
2022/05/27 01:39:29;;;;;;;9.27;1.77;;;14.40;99.90;;;;;;5010664;28;20068;-86
2022/05/27 01:42:19;;;;;;;4.57;1.70;;;14.50;99.90;;;;;;4992892;28;20029;-85
2022/05/27 01:45:14;;;;;;;5.65;2.28;;;14.50;99.90;;;;;;4988835;28;20050;-85
2022/05/27 01:48:08;;;;;;;6.43;2.05;;;14.50;99.90;;;;;;4992514;28;20517;-86
2022/05/27 01:50:56;;;;;;;7.75;1.95;;;14.40;99.90;;;;;;5010338;28;20018;-86
2022/05/27 01:53:32;;;;;;;2.33;1.40;;;14.30;99.90;;;;;;4992973;28;20109;-85
2022/05/27 01:56:18;;;;;;;3.28;1.73;;;14.30;99.90;;;;;;5010503;28;20033;-85
2022/05/27 01:58:53;;;;;;;4.53;1.30;;;14.30;99.90;;;;;;4992955;28;20109;-86
2022/05/27 02:01:24;;;;;;;6.40;1.67;;;14.40;99.90;;;;;;5010557;28;20394;-86
2022/05/27 02:04:13;;;;;;;10.63;2.28;;;14.40;99.90;;;;;;4992939;28;20457;-85
2022/05/27 02:06:44;;;;;;;5.40;1.92;;;14.50;99.90;;;;;;5006777;28;20018;-85
2022/05/27 02:09:34;;;;;;;2.25;1.50;;;14.60;99.90;;;;;;5010113;28;20029;-85
2022/05/27 02:12:07;;;;;;;6.80;1.60;;;14.60;99.90;;;;;;4988276;28;20475;-86
2022/05/27 02:14:57;;;;;;;4.53;1.95;;;14.60;99.90;;;;;;5004811;28;20029;-86
2022/05/27 02:17:49;;;;;;;4.43;2.20;;;14.60;99.90;;;;;;5009605;28;20045;-85
2022/05/27 02:20:23;;;;;;;2.80;1.30;;;14.60;99.90;;;;;;4988775;28;20375;-84
2022/05/27 02:22:57;;;;;;;10.90;1.83;;;14.70;99.90;;;;;;5010509;28;20026;-86
2022/05/27 02:28:08;;;;;;;2.38;1.20;;;14.70;99.90;;;;;;5006886;28;20046;-80
2022/05/27 02:30:36;;;;;;;11.63;1.98;;;14.70;99.90;;;;;;5011848;28;20099;-79
2022/05/27 02:35:51;;;;;;;3.50;1.90;;;14.70;99.90;;;;;;5013771;28;20030;-79
2022/05/27 02:38:17;;;;;;;2.55;1.40;;;14.70;99.90;;;;;;5013868;28;20033;-79
2022/05/27 02:41:07;;;;;;;8.93;2.25;;;14.60;99.90;;;;;;4995529;28;20021;-79
2022/05/27 02:43:39;;;;;;;5.80;1.55;;;14.60;99.90;;;;;;5006587;28;20076;-79
2022/05/27 02:46:13;;;;;;;7.55;1.65;;;14.60;99.90;;;;;;5013586;28;20047;-79
2022/05/27 02:49:06;;;;;;;7.70;2.05;;;14.60;99.90;;;;;;5013404;28;20022;-80
2022/05/27 02:52:18;;;;;;;4.10;1.58;;;14.60;99.90;;;;;;5013305;28;20100;-80
2022/05/27 02:55:23;;;;;;;10.18;2.35;;;14.70;99.90;;;;;;5003132;28;20029;-79
2022/05/27 02:57:52;;;;;;;9.63;1.70;;;14.70;99.90;;;;;;5012943;28;20046;-80
2022/05/27 03:00:21;;;;;;;4.13;1.65;;;14.70;99.90;;;;;;5013185;28;20018;-79
2022/05/27 03:02:47;;;;;;;5.15;1.48;;;14.70;99.90;;;;;;4996045;28;20072;-79
2022/05/27 03:05:15;;;;;;;5.63;1.77;;;14.70;99.90;;;;;;4995441;28;20022;-80
2022/05/27 03:08:08;;;;;;;5.35;1.95;;;14.60;99.90;;;;;;5012922;28;20022;-80
2022/05/27 03:11:04;;;;;;;8.80;1.63;;;14.60;99.90;;;;;;4994733;28;20022;-80
2022/05/27 03:13:57;;;;;;;4.50;1.27;;;14.60;99.90;;;;;;5012768;28;20014;-80
2022/05/27 03:16:31;;;;;;;7.03;1.55;;;14.60;99.90;;;;;;5006795;28;20014;-80
2022/05/27 03:19:06;;;;;;;6.93;1.58;;;14.60;99.90;;;;;;5012721;28;20022;-80
2022/05/27 03:22:06;;;;;;;6.30;1.50;;;14.60;99.90;;;;;;5012570;28;20026;-79
2022/05/27 03:25:01;;;;;;;4.05;1.77;;;14.70;99.90;;;;;;5006088;28;20430;-80
2022/05/27 03:27:38;;;;;;;3.95;1.42;;;14.60;99.90;;;;;;5071622;23;20090;-86
2022/05/27 03:30:30;;;;;;;6.13;1.60;;;14.60;99.90;;;;;;5048446;28;20024;-86
2022/05/27 03:33:14;;;;;;;;;;;14.60;99.90;;;;;;5067510;28;20016;-87
2022/05/27 03:35:53;;;;;;;3.50;1.48;;;14.60;99.90;;;;;;5067197;28;19999;-85
2022/05/27 03:38:35;;;;;;;4.97;1.33;;;14.60;99.90;;;;;;5048540;28;20040;-86
2022/05/27 03:41:04;;;;;;;5.10;1.27;;;14.60;99.90;;;;;;5066217;28;20081;-86
2022/05/27 03:43:33;;;;;;;7.28;1.80;;;14.60;99.90;;;;;;5071829;28;20036;-87
2022/05/27 03:46:00;;;;;;;5.32;1.38;;;14.60;99.90;;;;;;5071974;28;20474;-86
2022/05/27 03:48:28;;;;;;;4.15;1.45;;;14.60;99.90;;;;;;5072000;28;20019;-86
2022/05/27 03:51:00;;;;;;;5.70;1.98;;;14.50;99.90;;;;;;5072145;28;20059;-86
2022/05/27 03:54:03;;;;;;;4.00;1.10;;;14.50;99.90;;;;;;5071595;28;20009;-86
2022/05/27 03:56:11;;;;;;;2.50;1.67;;;14.50;99.90;;;;;;5071501;28;20033;-86
2022/05/27 03:58:37;;;;;;;10.20;1.80;;;14.50;99.90;;;;;;5071743;28;20029;-87
2022/05/27 04:01:02;;;;;;;5.47;1.10;;;14.50;99.90;;;;;;5054310;28;20044;-86
2022/05/27 04:03:28;;;;;;;6.20;1.33;;;14.40;99.90;;;;;;5071691;28;20020;-86
2022/05/27 04:05:54;;;;;;;6.32;1.30;;;14.40;99.90;;;;;;5071072;28;20021;-86
2022/05/27 04:08:19;;;;;;;2.47;1.48;;;14.30;99.90;;;;;;5071752;28;20038;-87
2022/05/27 04:10:45;;;;;;;3.47;1.63;;;14.30;99.90;;;;;;5070549;28;20066;-86
2022/05/27 04:13:11;;;;;;;3.58;1.15;;;14.20;99.90;;;;;;5053728;28;20477;-87
2022/05/27 04:15:36;;;;;;;2.92;1.40;;;14.20;99.90;;;;;;5071572;28;20027;-86
2022/05/27 04:18:02;;;;;;;2.50;1.08;;;14.10;99.90;;;;;;5071542;28;20805;-87
2022/05/27 04:20:28;;;;;;;3.90;1.10;;;14.00;99.90;;;;;;5071498;28;20029;-86
2022/05/27 04:22:54;;;;;;;9.30;1.60;;;14.00;99.90;;;;;;5071731;28;20024;-86
2022/05/27 04:25:21;;;;;;;2.08;1.42;;;14.00;99.90;;;;;;5053240;28;20045;-87
2022/05/27 04:27:47;;;;;;;7.38;1.23;;;13.90;99.90;;;;;;5109041;22;20044;-79
2022/05/27 04:30:13;;;;;;;2.45;1.20;;;13.80;99.90;;;;;;5091897;28;20024;-79
2022/05/27 04:32:39;;;;;;;2.70;1.38;;;13.70;99.90;;;;;;5091562;28;20088;-80
2022/05/27 04:35:06;;;;;;;3.80;1.27;;;13.70;99.90;;;;;;5090939;28;20465;-79
2022/05/27 04:37:31;;;;;;;1.55;0.90;;;13.60;99.90;;;;;;5091341;28;20081;-80
2022/05/27 04:39:57;;;;;;;3.58;1.13;;;13.50;99.90;;;;;;5072945;28;20024;-79
2022/05/27 04:42:23;;;;;;;1.13;1.00;;;13.40;99.90;;;;;;5073052;28;20024;-79
2022/05/27 04:44:49;;;;;;;5.47;1.40;;;13.30;99.90;;;;;;5073188;28;20020;-80
2022/05/27 04:47:15;;;;;;;5.22;1.67;;;13.20;99.90;;;;;;5091342;28;20026;-79
2022/05/27 04:49:56;;;;;;;3.08;1.25;;;13.10;99.90;;;;;;5090690;28;20028;-80
2022/05/27 04:52:25;;;;;;;2.83;1.25;;;13.10;99.90;;;;;;5072523;28;20043;-80
2022/05/27 04:54:52;;;;;;;1.30;1.20;;;13.00;99.90;;;;;;5090567;28;20072;-80
2022/05/27 04:57:22;;;;;;;1.58;1.40;;;13.10;99.90;;;;;;5083683;28;20441;-79
2022/05/27 04:59:49;;;;;;;2.15;1.10;;;13.00;99.90;;;;;;5090753;28;20020;-80
2022/05/27 05:02:20;;;;;;;2.17;1.27;;;12.90;99.90;;;;;;5072448;28;20031;-79
2022/05/27 05:04:47;;;;;;;3.40;1.23;;;12.90;99.90;;;;;;5072579;28;20016;-79
2022/05/27 05:07:13;;;;;;;6.50;1.58;;;12.90;99.90;;;;;;5090555;28;20411;-79
2022/05/27 05:09:40;;;;;;;1.48;0.95;;;12.90;99.90;;;;;;5071434;28;20020;-79
2022/05/27 05:12:07;;;;;;;2.22;1.15;;;13.00;99.90;;;;;;5090796;28;20016;-79
2022/05/27 05:14:33;;;;;;;1.67;1.13;;;12.90;99.90;;;;;;5084131;28;20038;-80
2022/05/27 05:16:59;;;;;;;1.00;0.93;;;13.00;99.90;;;;;;5090602;28;20381;-79
2022/05/27 05:19:25;;;;;;;1.30;1.10;;;13.10;99.90;;;;;;5090793;28;20066;-79
2022/05/27 05:21:50;;;;;;;3.50;1.08;;;13.20;99.90;;;;;;5091176;28;20433;-78
2022/05/27 05:24:16;;;;;;;1.73;1.17;;;13.20;99.90;;;;;;5090426;28;20064;-79
2022/05/27 05:26:42;;;;;;;1.90;0.88;;;13.30;99.90;;;;;;5096531;23;20097;-85
2022/05/27 05:29:07;;;;;;;2.92;1.13;;;13.30;99.90;;;;;;5090292;28;20024;-85
2022/05/27 05:31:34;;;;;;;2.45;0.68;;;13.30;99.90;;;;;;5090629;28;20028;-87
2022/05/27 05:34:00;;;;;;;1.80;0.60;;;13.30;99.90;;;;;;5090617;28;20469;-85
2022/05/27 05:36:34;;;;;;;1.27;0.60;;;13.40;99.90;;;;;;5090714;28;20116;-86
2022/05/27 05:39:00;;;;;;;4.03;0.70;;;13.50;99.90;;;;;;5090756;28;20384;-85
2022/05/27 05:41:34;;;;;;;0.90;0.70;;;13.60;99.90;;;;;;5090797;28;20031;-86
2022/05/27 05:44:01;;;;;;;2.10;0.80;;;13.70;99.90;;;;;;5090109;28;20120;-86
2022/05/27 05:46:27;;;;;;;0.65;0.65;;;13.70;99.90;;;;;;5091116;28;20032;-87
2022/05/27 05:48:53;;;;;;;0.93;0.70;;;13.80;99.90;;;;;;5090413;28;20020;-86
2022/05/27 05:51:20;;;;;;;0.90;0.68;;;13.90;99.90;;;;;;5090479;28;20020;-86
2022/05/27 05:53:46;;;;;;;1.52;0.80;;;14.10;99.90;;;;;;5090733;28;20027;-85
2022/05/27 05:56:13;;;;;;;0.40;0.40;;;14.30;99.90;;;;;;5090126;28;20020;-86
2022/05/27 05:58:39;;;;;;;0.88;0.52;;;14.30;99.90;;;;;;5089971;28;20024;-86
2022/05/27 06:01:05;;;;;;;1.35;0.70;;;14.40;99.90;;;;;;5090528;28;20025;-86
2022/05/27 06:03:31;;;;;;;0.75;0.50;;;14.50;99.90;;;;;;5090574;28;20028;-87
2022/05/27 06:05:56;;;;;;;1.38;0.52;;;14.50;99.90;;;;;;5092695;28;20027;-86
2022/05/27 06:08:22;;;;;;;1.38;0.68;;;14.60;99.90;;;;;;5094619;28;20031;-85
2022/05/27 06:10:48;;;;;;;1.85;0.90;;;14.60;99.90;;;;;;5092710;28;20012;-86
2022/05/27 06:13:14;;;;;;;2.47;0.60;;;14.70;99.90;;;;;;5094786;28;20059;-87
2022/05/27 06:15:40;;;;;;;2.65;1.05;;;14.80;99.90;;;;;;5094333;28;20640;-88
2022/05/27 06:18:07;;;;;;;0.65;0.60;;;15.10;99.90;;;;;;5094282;28;20028;-87
2022/05/27 06:20:35;;;;;;;2.60;0.70;;;15.40;99.90;;;;;;5094086;28;20021;-86
2022/05/27 06:23:03;;;;;;;1.38;0.75;;;15.80;99.90;;;;;;5094668;28;20073;-86
2022/05/27 06:25:28;;;;;;;1.35;0.77;;;16.00;99.90;;;;;;5093501;28;20510;-85
2022/05/27 06:34:23;;;;;;;1.58;0.65;;;16.30;99.90;;;;;;5094540;22;20040;-79
2022/05/27 06:36:08;;;;;;;1.02;0.40;;;17.00;99.90;;;;;;5073668;28;20435;-78
2022/05/27 06:38:36;;;;;;;0.75;0.57;;;16.90;99.90;;;;;;5072923;28;20028;-79
2022/05/27 06:41:03;;;;;;;1.70;0.70;;;16.80;99.90;;;;;;5065705;28;20031;-79
2022/05/27 06:43:28;;;;;;;0.75;0.70;;;16.70;99.90;;;;;;5071569;28;20052;-78
2022/05/27 06:45:54;;;;;;;0.75;0.55;;;16.60;99.90;;;;;;5071892;28;20059;-78
2022/05/27 06:48:20;;;;;;;1.15;0.90;;;16.50;99.90;;;;;;5072623;28;20050;-78
2022/05/27 06:50:46;;;;;;;1.38;0.60;;;16.50;99.90;;;;;;5072103;28;20581;-78
2022/05/27 06:53:11;;;;;;;1.25;0.75;;;16.40;99.90;;;;;;5072160;28;20025;-81
2022/05/27 06:55:37;;;;;;;0.80;0.80;;;16.70;99.90;;;;;;5072613;28;20021;-79
2022/05/27 06:58:04;;;;;;;2.00;0.60;;;16.70;99.90;;;;;;5054059;28;20039;-80
2022/05/27 07:00:29;;;;;;;1.42;0.90;;;16.70;99.90;;;;;;5072461;28;20044;-77
2022/05/27 07:02:58;;;;;;;1.00;0.93;;;16.70;99.90;;;;;;5072751;28;20067;-85
2022/05/27 07:05:24;;;;;;;0.98;0.73;;;16.50;99.90;;;;;;5053965;28;20021;-81
2022/05/27 07:07:50;;;;;;;1.45;0.60;;;16.30;99.90;;;;;;5054282;28;20427;-79
2022/05/27 07:10:16;;;;;;;1.45;0.82;;;16.40;99.90;;;;;;5072377;28;20029;-79
2022/05/27 07:12:42;;;;;;;0.95;0.77;;;16.20;99.90;;;;;;5053601;28;20465;-78
2022/05/27 07:15:08;;;;;;;2.15;1.00;;;16.30;99.90;;;;;;5053770;28;20123;-80
2022/05/27 07:17:35;;;;;;;1.02;0.70;;;16.20;99.90;;;;;;5071786;28;20063;-79
2022/05/27 07:20:04;;;;;;;2.08;0.80;;;16.30;99.90;;;;;;5054710;28;20481;-78
2022/05/27 07:22:30;;;;;;;1.63;0.80;;;16.30;99.90;;;;;;5072909;28;20024;-87
2022/05/27 07:24:56;;;;;;;1.60;0.82;;;16.30;99.90;;;;;;5072485;28;20020;-81
2022/05/27 07:27:22;;;;;;;1.50;0.90;;;16.50;99.90;;;;;;5097330;22;20493;-83
2022/05/27 07:29:48;;;;;;;1.50;0.80;;;16.60;99.90;;;;;;5052925;28;20071;-84
2022/05/27 07:32:14;;;;;;;1.17;1.05;;;16.60;99.90;;;;;;5071699;28;20021;-81
2022/05/27 07:34:40;;;;;;;2.40;0.70;;;16.80;99.90;;;;;;5053910;28;20418;-81
2022/05/27 07:37:06;;;;;;;1.75;1.15;;;17.00;99.90;;;;;;5071440;28;20032;-84
2022/05/27 07:39:32;;;;;;;3.70;0.75;;;16.90;99.90;;;;;;5071776;28;20440;-83
2022/05/27 07:41:57;;;;;;;1.67;0.70;;;17.00;99.90;;;;;;5070976;28;20046;-85
2022/05/27 07:44:23;;;;;;;1.05;0.77;;;17.00;99.90;;;;;;5052792;28;20036;-83
2022/05/27 07:46:52;;;;;;;2.60;0.75;;;17.00;99.90;;;;;;5072172;28;20075;-84
2022/05/27 07:49:18;;;;;;;1.40;0.68;;;17.10;99.90;;;;;;5065506;28;20012;-85
2022/05/27 07:51:44;;;;;;;1.55;0.70;;;17.30;99.90;;;;;;5072107;28;20021;-84
2022/05/27 07:54:11;;;;;;;2.65;0.55;;;17.20;99.90;;;;;;5072005;28;20454;-84
2022/05/27 07:56:39;;;;;;;2.53;0.85;;;17.20;99.90;;;;;;5071816;28;20029;-84
2022/05/27 07:59:05;;;;;;;3.72;1.33;;;17.30;99.90;;;;;;5071557;28;20499;-83
2022/05/27 08:01:31;;;;;;;1.92;0.80;;;17.30;99.90;;;;;;5071511;28;20039;-84
2022/05/27 08:03:57;;;;;;;1.80;0.90;;;17.40;99.90;;;;;;5071842;28;20020;-84
2022/05/27 08:06:23;;;;;;;3.08;0.80;;;17.50;99.90;;;;;;5071229;28;20090;-84
2022/05/27 08:08:48;;;;;;;0.93;0.55;;;17.70;99.90;;;;;;5071470;28;20381;-84
2022/05/27 08:11:14;;;;;;;3.25;0.63;;;17.90;99.90;;;;;;5071822;28;20515;-83
2022/05/27 08:13:42;;;;;;;2.95;1.08;;;18.20;99.30;;;;;;5071414;28;20066;-83
2022/05/27 08:16:08;;;;;;;1.73;0.70;;;18.20;96.00;;;;;;5071578;28;20012;-83
2022/05/27 08:18:34;;;;;;;2.15;0.77;;;18.20;97.40;;;;;;5071915;28;20381;-85
2022/05/27 08:20:59;;;;;;;2.85;0.73;;;18.10;95.50;;;;;;5071365;28;20023;-83
2022/05/27 08:23:25;;;;;;;3.15;0.90;;;18.10;96.70;;;;;;5071352;28;20051;-84
2022/05/27 08:28:21;;;;;;;6.93;0.85;;;18.70;96.30;;;;;;5054404;28;20095;-76
2022/05/27 08:30:48;;;;;;;1.65;0.70;;;19.20;93.50;;;;;;5033236;28;20021;-80
2022/05/27 08:33:14;;;;;;;1.70;0.65;;;19.30;91.20;;;;;;5030914;28;20037;-79
2022/05/27 08:38:30;;;;;;;2.10;0.88;;;19.70;83.50;;;;;;5025198;28;20036;-79
2022/05/27 08:41:34;;;;;;;3.08;0.90;;;20.00;85.60;;;;;;5031281;28;20017;-80
2022/05/27 08:44:06;;;;;;;2.67;0.70;;;20.20;81.30;;;;;;5025770;28;20414;-79
2022/05/27 08:46:48;;;;;;;2.33;0.43;;;20.50;80.40;;;;;;5024444;28;20096;-79
2022/05/27 08:49:20;;;;;;;2.25;0.80;;;21.10;79.90;;;;;;5030990;28;20057;-80
2022/05/27 08:52:28;;;;;;;2.67;0.70;;;22.30;76.30;;;;;;5023939;28;20064;-79
2022/05/27 08:59:26;;;;;;;3.85;1.13;;;23.00;66.30;;;;;;5004817;28;20037;-81
2022/05/27 09:00:48;;;;;;;1.98;0.80;;;22.60;69.30;;;;;;5031348;28;20075;-80
2022/05/27 09:03:15;;;;;;;2.83;0.70;;;23.50;64.60;;;;;;5031014;28;20446;-80
2022/05/27 09:05:56;;;;;;;4.70;0.95;;;23.50;63.10;;;;;;5031238;28;20485;-80
2022/05/27 09:08:26;;;;;;;2.45;0.60;;;23.80;61.20;;;;;;5024848;28;20009;-79
2022/05/27 09:10:57;;;;;;;4.47;0.80;;;24.60;55.80;;;;;;5033513;28;20030;-80
2022/05/27 09:13:47;;;;;;;1.55;0.55;;;24.30;56.00;;;;;;5030653;28;20045;-79
2022/05/27 09:16:19;;;;;;;1.00;0.70;;;24.60;56.30;;;;;;5030672;28;20021;-80
2022/05/27 09:19:05;;;;;;;1.42;0.60;;;25.30;52.80;;;;;;5030782;28;20104;-80
2022/05/27 09:21:43;;;;;;;2.95;1.00;;;25.30;54.80;;;;;;5030462;28;20036;-81
2022/05/27 09:24:20;;;;;;;1.65;0.90;;;25.70;53.10;;;;;;5031022;28;20120;-80
2022/05/27 09:26:51;;;;;;;2.78;0.80;;;26.60;52.60;;;;;;5070887;22;20072;-81
2022/05/27 09:29:34;;;;;;;1.42;0.70;;;27.60;49.70;;;;;;5090871;28;20123;-82
2022/05/27 09:32:08;;;;;;;4.43;1.27;;;27.80;48.00;;;;;;5072861;28;20024;-82
2022/05/27 09:34:37;;;;;;;1.92;0.68;;;27.80;46.30;;;;;;5072601;28;20065;-82
2022/05/27 09:37:07;;;;;;;2.83;1.10;;;28.10;46.60;;;;;;5090275;28;20039;-82
2022/05/27 09:39:34;;;;;;;4.28;0.90;;;27.50;46.00;;;;;;5073998;28;20564;-81
2022/05/27 09:42:12;;;;;;;4.68;0.70;;;27.70;46.20;;;;;;5094931;28;20081;-81
2022/05/27 09:44:49;;;;;;;3.00;0.80;;;28.00;45.30;;;;;;5094829;28;20016;-82
2022/05/27 09:47:19;;;;;;;3.47;1.58;;;28.20;45.30;;;;;;5076172;28;20026;-81
2022/05/27 09:49:50;;;;;;;2.13;0.70;;;28.80;46.60;;;;;;5094571;28;20180;-82
2022/05/27 09:52:16;;;;;;;2.95;0.75;;;29.10;42.10;;;;;;5094686;28;20024;-82
2022/05/27 09:54:53;;;;;;;2.58;0.80;;;29.10;43.40;;;;;;5095125;28;20020;-82
2022/05/27 09:57:23;;;;;;;4.20;0.80;;;28.70;41.90;;;;;;5094075;28;20073;-82
2022/05/27 09:59:55;;;;;;;3.58;0.85;;;28.20;42.20;;;;;;5094815;28;20365;-80
2022/05/27 10:02:34;;;;;;;2.83;0.82;;;28.40;43.00;;;;;;5094486;28;20024;-81
2022/05/27 10:05:07;;;;;;;4.30;1.10;;;28.20;43.20;;;;;;5094466;28;20602;-82
2022/05/27 10:07:42;;;;;;;2.95;0.68;;;27.90;42.20;;;;;;5094360;28;20016;-80
2022/05/27 10:10:19;;;;;;;1.33;0.77;;;28.00;42.30;;;;;;5087753;28;20111;-81
2022/05/27 10:12:46;;;;;;;3.13;0.50;;;29.00;45.10;;;;;;5093751;28;20435;-82
2022/05/27 10:15:28;;;;;;;1.75;0.60;;;30.20;40.60;;;;;;5094349;28;20047;-81
2022/05/27 10:17:56;;;;;;;3.70;0.77;;;30.10;40.70;;;;;;5093757;28;20035;-81
2022/05/27 10:20:31;;;;;;;1.55;0.60;;;29.40;41.30;;;;;;5076039;28;20024;-81
2022/05/27 10:23:09;;;;;;;2.75;0.90;;;30.10;43.40;;;;;;5088327;28;20028;-81
2022/05/27 10:25:39;;;;;;;2.40;0.85;;;29.90;39.50;;;;;;5094209;28;20545;-82
2022/05/27 10:28:06;;;;;;;5.97;0.85;;;30.50;39.50;;;;;;5096401;22;20052;-81
2022/05/27 10:30:38;;;;;;;3.88;0.85;;;31.60;38.40;;;;;;5073625;28;20063;-82
2022/05/27 10:33:40;;;;;;;3.13;0.88;;;31.40;36.60;;;;;;5073382;28;20056;-81
2022/05/27 10:36:43;;;;;;;5.30;1.15;;;31.80;37.10;;;;;;5071222;28;20093;-81
2022/05/27 10:39:36;;;;;;;3.40;0.90;;;32.00;36.10;;;;;;5066559;28;20036;-81
2022/05/27 10:42:27;;;;;;;3.72;1.08;;;30.80;38.60;;;;;;5049549;28;20024;-81
2022/05/27 10:45:15;;;;;;;2.42;0.65;;;31.10;37.80;;;;;;5068424;28;20016;-81
2022/05/27 10:48:17;;;;;;;6.60;1.13;;;31.80;36.20;;;;;;5068829;28;20552;-80
2022/05/27 10:51:15;;;;;;;4.28;1.00;;;31.50;36.50;;;;;;5072298;28;20050;-81
2022/05/27 10:53:59;;;;;;;3.17;0.70;;;30.40;35.90;;;;;;5051478;28;20073;-81
2022/05/27 11:02:56;;;;;;;3.05;0.75;;;31.40;36.00;;;;;;5066430;28;20048;-80
2022/05/27 11:05:50;;;;;;;3.22;1.00;;;31.60;36.50;;;;;;5072985;28;20027;-80
2022/05/27 11:08:30;;;;;;;4.55;0.60;;;31.70;37.20;;;;;;5066499;28;20430;-80
2022/05/27 11:11:13;;;;;;;4.68;0.80;;;32.20;34.40;;;;;;5072026;28;20008;-80
2022/05/27 11:17:07;;;;;;;2.55;0.82;;;31.80;34.00;;;;;;4990655;28;20112;-81
2022/05/27 11:19:58;;;;;;;1.83;0.45;;;33.70;34.80;;;;;;4991139;28;20077;-81
2022/05/27 11:22:30;;;;;;;2.72;0.70;;;33.20;34.00;;;;;;5047242;28;20401;-81
2022/05/27 11:25:13;;;;;;;3.13;0.77;;;33.10;34.20;;;;;;5054628;28;20028;-81
2022/05/27 11:28:10;;;;;;;1.58;0.75;;;33.70;34.40;;;;;;5090043;22;20043;-83
2022/05/27 11:31:00;;;;;;;4.05;0.90;;;33.10;32.30;;;;;;5054744;28;20039;-82
2022/05/27 11:33:52;;;;;;;4.93;0.90;;;33.30;32.60;;;;;;5072265;28;20035;-82
2022/05/27 11:36:55;;;;;;;2.50;0.80;;;33.50;34.50;;;;;;5043083;28;20037;-81
2022/05/27 11:39:50;;;;;;;3.47;0.80;;;33.80;34.10;;;;;;5067187;28;20032;-82
2022/05/27 11:42:34;;;;;;;2.17;0.50;;;34.30;32.90;;;;;;5068090;28;20032;-83
2022/05/27 11:45:21;;;;;;;1.75;0.50;;;34.70;33.00;;;;;;5071943;28;20029;-83
2022/05/27 11:48:08;;;;;;;2.33;1.10;;;35.60;33.80;;;;;;5071724;28;20039;-82
2022/05/27 11:50:48;;;;;;;1.52;0.70;;;35.50;31.30;;;;;;5071440;28;20020;-81
2022/05/27 11:53:33;;;;;;;5.43;1.13;;;36.30;31.80;;;;;;5071950;28;20032;-82
2022/05/27 11:56:17;;;;;;;4.40;1.42;;;36.00;32.30;;;;;;5071851;28;20020;-81
2022/05/27 11:59:31;;;;;;;2.30;0.80;;;36.80;32.70;;;;;;5071201;28;20070;-82
2022/05/27 12:02:13;;;;;;;3.22;0.90;;;36.50;27.60;;;;;;5037482;28;20557;-82
2022/05/27 12:04:54;;;;;;;2.65;0.88;;;36.20;29.90;;;;;;5053906;28;20020;-82
2022/05/27 12:07:38;;;;;;;5.43;0.90;;;37.40;30.30;;;;;;5065402;28;20447;-82
2022/05/27 12:10:18;;;;;;;2.83;0.77;;;37.20;29.40;;;;;;5064328;28;20276;-82
2022/05/27 12:12:53;;;;;;;3.47;0.85;;;36.70;28.20;;;;;;5064730;28;20550;-83
2022/05/27 12:15:24;;;;;;;4.45;0.80;;;35.60;29.30;;;;;;5071725;28;20021;-83
2022/05/27 12:17:53;;;;;;;5.10;1.00;;;34.90;30.10;;;;;;5071497;28;20090;-82
2022/05/27 12:20:28;;;;;;;3.15;0.60;;;35.10;30.00;;;;;;5071368;28;20534;-84
2022/05/27 12:22:55;;;;;;;2.50;0.65;;;36.30;31.10;;;;;;5071767;28;20013;-82
2022/05/27 12:25:23;;;;;;;4.68;0.65;;;37.10;30.10;;;;;;5071191;28;20008;-83
2022/05/27 12:27:50;;;;;;;5.15;1.15;;;36.40;28.90;;;;;;5127552;22;20052;-79
2022/05/27 12:30:18;;;;;;;3.10;0.68;;;36.50;27.60;;;;;;5091792;28;20028;-80
2022/05/27 12:32:46;;;;;;;2.55;0.60;;;36.60;28.00;;;;;;5091610;28;20052;-80
2022/05/27 12:35:33;;;;;;;2.60;0.90;;;36.20;27.60;;;;;;5091631;28;20059;-80
2022/05/27 12:38:44;;;;;;;4.75;1.08;;;36.00;30.60;;;;;;5091277;28;20034;-81
2022/05/27 12:41:12;;;;;;;2.83;0.88;;;35.60;30.40;;;;;;5048673;28;20021;-81
2022/05/27 12:44:03;;;;;;;2.63;1.02;;;35.90;30.10;;;;;;5048428;28;20429;-80
2022/05/27 12:46:45;;;;;;;3.40;1.02;;;36.80;30.30;;;;;;5078211;28;20116;-81
2022/05/27 12:49:32;;;;;;;5.68;1.38;;;36.80;29.80;;;;;;5084992;28;20028;-80
2022/05/27 12:51:58;;;;;;;3.28;1.15;;;37.90;29.90;;;;;;5085099;28;20043;-81
2022/05/27 12:54:42;;;;;;;4.28;0.93;;;38.20;28.50;;;;;;5091370;28;20413;-81
2022/05/27 13:00:55;;;;;;;3.70;0.90;;;37.00;28.80;;;;;;5086450;28;20038;-80
2022/05/27 13:03:33;;;;;;;3.97;1.42;;;36.70;28.00;;;;;;5089053;28;20020;-81
2022/05/27 13:06:11;;;;;;;5.03;1.45;;;37.30;28.60;;;;;;5090778;28;20061;-80
2022/05/27 13:08:55;;;;;;;5.70;1.02;;;37.40;26.40;;;;;;5090969;28;20032;-81
2022/05/27 13:11:21;;;;;;;2.97;0.70;;;37.40;28.10;;;;;;5090124;28;20020;-80
2022/05/27 13:14:12;;;;;;;4.63;0.85;;;38.30;28.30;;;;;;5090294;28;20498;-81
2022/05/27 13:17:16;;;;;;;2.60;0.70;;;38.50;28.10;;;;;;5085904;28;20024;-80
2022/05/27 13:19:45;;;;;;;2.55;0.80;;;38.40;26.30;;;;;;5088555;28;20421;-80
2022/05/27 13:22:29;;;;;;;2.20;0.73;;;38.70;27.20;;;;;;5090727;28;20039;-81
2022/05/27 13:25:15;;;;;;;3.50;0.95;;;38.50;26.50;;;;;;5090809;28;20020;-81
2022/05/27 13:27:41;;;;;;;2.67;0.75;;;38.70;27.20;;;;;;5083374;22;20052;-83
2022/05/27 13:30:11;;;;;;;2.25;0.80;;;38.20;26.50;;;;;;5050621;28;20188;-85
2022/05/27 13:33:01;;;;;;;1.92;0.52;;;38.50;25.30;;;;;;5050376;28;20501;-84
2022/05/27 13:35:39;;;;;;;3.58;0.98;;;38.10;27.00;;;;;;5043740;28;20021;-85
2022/05/27 13:38:09;;;;;;;2.33;0.70;;;39.00;28.40;;;;;;5050383;28;20539;-83
2022/05/27 13:40:36;;;;;;;3.90;0.63;;;39.20;25.50;;;;;;5050381;28;20112;-83
2022/05/27 13:43:35;;;;;;;3.38;1.17;;;39.30;24.90;;;;;;5050066;28;20274;-83
2022/05/27 13:46:09;;;;;;;3.60;0.70;;;37.90;25.60;;;;;;5047034;28;20025;-83
2022/05/27 13:48:41;;;;;;;2.20;0.90;;;38.20;26.10;;;;;;5049897;28;20083;-83
2022/05/27 13:51:13;;;;;;;4.63;0.90;;;37.70;25.30;;;;;;5032366;28;20151;-83
2022/05/27 13:53:39;;;;;;;2.65;0.85;;;37.40;27.30;;;;;;5043627;28;20405;-81
2022/05/27 13:56:23;;;;;;;5.82;0.80;;;37.40;26.80;;;;;;5050284;28;20014;-83
2022/05/27 13:59:00;;;;;;;5.15;1.33;;;37.90;27.30;;;;;;5049395;28;20474;-81
2022/05/27 14:01:37;;;;;;;4.57;0.90;;;38.90;26.40;;;;;;5049844;28;20021;-82